Time;durP1;ratioP1;P1;durP2;ratioP2;P2;SDS_P1;SDS_P2;PMS_P1;PMS_P2;Temp;Humidity;BMP_temperature;BMP_pressure;BME280_temperature;BME280_humidity;BME280_pressure;Samples;Min_cycle;Max_cycle;Signal;HPM_P1;HPM_P2
2023/08/23 00:02:04;;;;;;;16.60;11.20;;;16.20;99.90;;;;;;5013823;28;20049;-73
2023/08/23 00:04:34;;;;;;;21.05;12.50;;;16.20;99.90;;;;;;5012739;28;20041;-73
2023/08/23 00:07:00;;;;;;;17.02;10.48;;;16.20;99.90;;;;;;5012335;28;20074;-73
2023/08/23 00:09:26;;;;;;;14.40;9.43;;;16.20;99.90;;;;;;5012314;28;20046;-73
2023/08/23 00:11:51;;;;;;;15.95;10.02;;;16.20;99.90;;;;;;5013751;28;20061;-73
2023/08/23 00:14:17;;;;;;;15.98;10.02;;;16.20;99.90;;;;;;5012248;28;20451;-73
2023/08/23 00:16:42;;;;;;;16.83;10.30;;;16.20;99.90;;;;;;5012258;28;20038;-73
2023/08/23 00:19:08;;;;;;;13.52;10.32;;;16.20;99.90;;;;;;5013668;28;20050;-73
2023/08/23 00:21:34;;;;;;;16.90;11.13;;;16.20;99.90;;;;;;5013509;28;20049;-73
2023/08/23 00:23:59;;;;;;;18.00;11.88;;;16.20;99.90;;;;;;5012218;28;20054;-73
2023/08/23 00:26:25;;;;;;;16.25;12.10;;;16.20;99.90;;;;;;5012411;28;20054;-73
2023/08/23 00:28:50;;;;;;;18.63;12.57;;;16.20;99.90;;;;;;5011947;28;20057;-73
2023/08/23 00:31:16;;;;;;;20.00;12.60;;;16.20;99.90;;;;;;5013584;28;20046;-73
2023/08/23 00:33:42;;;;;;;19.23;13.75;;;16.20;99.90;;;;;;5012509;28;20084;-73
2023/08/23 00:36:07;;;;;;;17.05;11.60;;;16.30;99.90;;;;;;5015465;28;20104;-73
2023/08/23 00:38:33;;;;;;;15.63;11.43;;;16.20;99.90;;;;;;5015848;28;20045;-73
2023/08/23 00:41:02;;;;;;;17.17;11.43;;;16.20;99.90;;;;;;5016008;28;20057;-73
2023/08/23 00:43:30;;;;;;;19.30;12.13;;;16.20;99.90;;;;;;5016062;28;20048;-73
2023/08/23 00:45:57;;;;;;;18.75;12.25;;;16.20;99.90;;;;;;5015779;28;20432;-73
2023/08/23 00:48:23;;;;;;;17.92;12.45;;;16.30;99.90;;;;;;5017048;28;20042;-73
2023/08/23 00:50:48;;;;;;;18.65;12.45;;;16.30;99.90;;;;;;5016885;28;20107;-73
2023/08/23 00:53:15;;;;;;;17.00;12.05;;;16.30;99.90;;;;;;5015530;28;20049;-73
2023/08/23 00:55:41;;;;;;;17.85;12.00;;;16.20;99.90;;;;;;5015459;28;20126;-73
2023/08/23 00:58:07;;;;;;;18.85;12.63;;;16.30;99.90;;;;;;5015807;28;20042;-73
2023/08/23 01:00:33;;;;;;;20.08;11.52;;;16.30;99.90;;;;;;5015750;28;20478;-73
2023/08/23 01:02:59;;;;;;;17.38;10.52;;;16.30;99.90;;;;;;5015931;28;20053;-73
2023/08/23 01:05:54;;;;;;;19.08;11.48;;;16.20;99.90;;;;;;5015388;28;20061;-73
2023/08/23 01:08:34;;;;;;;16.45;10.70;;;16.20;99.90;;;;;;5015549;28;20050;-73
2023/08/23 01:11:16;;;;;;;17.90;12.23;;;16.20;99.90;;;;;;5015631;28;20452;-73
2023/08/23 01:13:51;;;;;;;20.20;12.33;;;16.30;99.90;;;;;;5015305;28;20384;-73
2023/08/23 01:16:20;;;;;;;18.77;12.65;;;16.30;99.90;;;;;;5015149;28;20319;-73
2023/08/23 01:18:46;;;;;;;16.58;10.88;;;16.30;99.90;;;;;;5015105;28;20046;-73
2023/08/23 01:21:18;;;;;;;20.67;12.05;;;16.30;99.90;;;;;;5015325;28;20037;-73
2023/08/23 01:23:44;;;;;;;18.35;11.13;;;16.30;99.90;;;;;;5015278;28;20050;-73
2023/08/23 01:26:10;;;;;;;20.67;12.18;;;16.30;99.90;;;;;;5016233;28;20434;-73
2023/08/23 01:28:36;;;;;;;17.15;11.52;;;16.40;99.90;;;;;;5014924;28;20516;-73
2023/08/23 01:31:06;;;;;;;22.30;13.40;;;16.40;99.90;;;;;;5015122;28;20104;-73
2023/08/23 01:33:39;;;;;;;18.55;12.15;;;16.40;99.90;;;;;;5015032;28;20038;-73
2023/08/23 01:36:20;;;;;;;19.15;12.23;;;16.30;99.90;;;;;;5014832;28;20053;-73
2023/08/23 01:38:47;;;;;;;20.48;12.65;;;16.30;99.90;;;;;;5015164;28;20038;-73
2023/08/23 01:41:14;;;;;;;24.42;13.43;;;16.30;99.90;;;;;;5014840;28;20076;-73
2023/08/23 01:43:40;;;;;;;27.40;13.82;;;16.30;99.90;;;;;;5014923;28;20053;-73
2023/08/23 01:46:05;;;;;;;24.17;13.70;;;16.40;99.90;;;;;;5015231;28;20049;-73
2023/08/23 01:48:31;;;;;;;20.73;13.27;;;16.30;99.90;;;;;;5014446;28;20045;-73
2023/08/23 01:50:56;;;;;;;21.73;13.07;;;16.30;99.90;;;;;;5014679;28;20050;-73
2023/08/23 01:53:22;;;;;;;20.98;12.25;;;16.30;99.90;;;;;;5014567;28;20046;-73
2023/08/23 01:55:48;;;;;;;21.55;13.00;;;16.40;99.90;;;;;;5014253;28;20081;-73
2023/08/23 01:58:13;;;;;;;23.42;13.77;;;16.40;99.90;;;;;;5014385;28;20042;-73
2023/08/23 02:00:39;;;;;;;23.30;13.20;;;16.40;99.90;;;;;;5015600;28;20050;-73
2023/08/23 02:03:04;;;;;;;21.58;13.20;;;16.40;99.90;;;;;;5015606;28;20109;-73
2023/08/23 02:05:30;;;;;;;20.63;12.20;;;16.50;99.90;;;;;;5014382;28;20053;-73
2023/08/23 02:07:56;;;;;;;18.13;11.15;;;16.40;99.90;;;;;;5014528;28;20088;-73
2023/08/23 02:10:21;;;;;;;17.05;10.90;;;16.40;99.90;;;;;;5014159;28;20501;-73
2023/08/23 02:12:47;;;;;;;18.25;11.18;;;16.40;99.90;;;;;;5014128;28;20045;-73
2023/08/23 02:15:13;;;;;;;18.92;11.27;;;16.30;99.90;;;;;;5015524;28;20049;-73
2023/08/23 02:17:39;;;;;;;18.73;11.23;;;16.30;99.90;;;;;;5015491;28;20081;-73
2023/08/23 02:20:05;;;;;;;17.75;11.88;;;16.40;99.90;;;;;;5014280;28;20034;-73
2023/08/23 02:22:31;;;;;;;15.15;11.50;;;16.40;99.90;;;;;;5015252;28;20085;-73
2023/08/23 02:24:57;;;;;;;19.85;10.98;;;16.30;99.90;;;;;;5015015;28;20073;-73
2023/08/23 02:27:23;;;;;;;18.27;11.88;;;16.40;99.90;;;;;;5015213;28;20038;-73
2023/08/23 02:29:49;;;;;;;17.35;11.10;;;16.40;99.90;;;;;;5013630;28;20062;-73
2023/08/23 02:32:17;;;;;;;15.85;11.10;;;16.30;99.90;;;;;;5013783;28;20054;-73
2023/08/23 02:34:46;;;;;;;15.57;10.82;;;16.30;99.90;;;;;;5013690;28;20045;-73
2023/08/23 02:37:11;;;;;;;14.25;11.00;;;16.30;99.90;;;;;;5013993;28;20054;-73
2023/08/23 02:39:37;;;;;;;15.60;10.98;;;16.30;99.90;;;;;;5013552;28;20437;-73
2023/08/23 02:42:03;;;;;;;17.13;11.10;;;16.30;99.90;;;;;;5013826;28;20061;-73
2023/08/23 02:44:28;;;;;;;19.00;12.10;;;16.30;99.90;;;;;;5013818;28;20033;-73
2023/08/23 02:46:54;;;;;;;18.08;11.73;;;16.40;99.90;;;;;;5013500;28;20042;-73
2023/08/23 02:49:19;;;;;;;16.58;11.70;;;16.40;99.90;;;;;;5013810;28;20169;-73
2023/08/23 02:51:45;;;;;;;18.52;11.80;;;16.40;99.90;;;;;;5013535;28;20466;-73
2023/08/23 02:54:11;;;;;;;20.50;13.38;;;16.40;99.90;;;;;;5014707;28;20084;-73
2023/08/23 02:56:36;;;;;;;19.33;12.70;;;16.40;99.90;;;;;;5013229;28;20077;-73
2023/08/23 02:59:02;;;;;;;16.92;12.05;;;16.50;99.90;;;;;;5012557;28;20080;-73
2023/08/23 03:01:27;;;;;;;19.25;13.02;;;16.40;99.90;;;;;;5013370;28;20050;-73
2023/08/23 03:03:53;;;;;;;19.48;13.15;;;16.40;99.90;;;;;;5013391;28;20046;-73
2023/08/23 03:06:19;;;;;;;23.27;13.55;;;16.50;99.90;;;;;;5014190;28;20046;-73
2023/08/23 03:08:44;;;;;;;22.10;13.63;;;16.50;99.90;;;;;;5013131;28;20092;-73
2023/08/23 03:11:10;;;;;;;22.90;13.93;;;16.50;99.90;;;;;;5014487;28;20132;-73
2023/08/23 03:13:36;;;;;;;20.50;13.20;;;16.50;99.90;;;;;;5013366;28;20319;-73
2023/08/23 03:16:01;;;;;;;19.33;13.93;;;16.50;99.90;;;;;;5013190;28;20054;-73
2023/08/23 03:18:27;;;;;;;19.98;12.93;;;16.50;99.90;;;;;;5013088;28;20478;-73
2023/08/23 03:20:53;;;;;;;23.88;13.70;;;16.60;99.90;;;;;;5013273;28;20054;-73
2023/08/23 03:23:19;;;;;;;19.65;13.73;;;16.50;99.90;;;;;;5013072;28;20052;-73
2023/08/23 03:25:46;;;;;;;19.00;13.43;;;16.60;99.90;;;;;;5012878;28;20050;-73
2023/08/23 03:28:13;;;;;;;20.92;13.63;;;16.60;99.90;;;;;;5012954;28;20132;-73
2023/08/23 03:30:39;;;;;;;24.23;14.93;;;16.60;99.90;;;;;;5012903;28;20058;-73
2023/08/23 03:33:05;;;;;;;20.00;13.60;;;16.50;99.90;;;;;;5013138;28;20132;-73
2023/08/23 03:35:31;;;;;;;21.77;14.23;;;16.60;99.90;;;;;;5012788;28;20129;-73
2023/08/23 03:37:57;;;;;;;23.73;15.00;;;16.50;99.90;;;;;;5012711;28;20050;-73
2023/08/23 03:40:22;;;;;;;21.38;12.98;;;16.50;99.90;;;;;;5012712;28;20117;-73
2023/08/23 03:42:48;;;;;;;19.52;12.77;;;16.60;99.90;;;;;;5013069;28;20045;-73
2023/08/23 03:45:14;;;;;;;22.30;14.52;;;16.60;99.90;;;;;;5012751;28;20125;-73
2023/08/23 03:47:39;;;;;;;25.02;14.50;;;16.50;99.90;;;;;;5012702;28;20046;-72
2023/08/23 03:50:05;;;;;;;22.55;14.52;;;16.50;99.90;;;;;;5012756;28;20046;-73
2023/08/23 03:52:31;;;;;;;22.55;14.07;;;16.50;99.90;;;;;;5012751;28;20415;-73
2023/08/23 03:54:57;;;;;;;21.50;14.70;;;16.50;99.90;;;;;;5012692;28;20441;-73
2023/08/23 03:57:22;;;;;;;20.33;13.32;;;16.50;99.90;;;;;;5012601;28;20405;-73
2023/08/23 03:59:51;;;;;;;26.05;14.30;;;16.50;99.90;;;;;;5012815;28;20046;-73
2023/08/23 04:02:16;;;;;;;24.30;15.00;;;16.50;99.90;;;;;;5012598;28;20402;-72
2023/08/23 04:04:42;;;;;;;22.48;15.05;;;16.40;99.90;;;;;;5013529;28;20478;-73
2023/08/23 04:07:09;;;;;;;24.52;15.40;;;16.50;99.90;;;;;;5012387;28;20057;-73
2023/08/23 04:09:34;;;;;;;25.73;14.70;;;16.50;99.90;;;;;;5013621;28;20512;-73
2023/08/23 04:12:00;;;;;;;20.48;13.90;;;16.40;99.90;;;;;;5016388;28;20538;-73
2023/08/23 04:14:26;;;;;;;22.77;14.60;;;16.50;99.90;;;;;;5017600;28;20092;-73
2023/08/23 04:16:51;;;;;;;27.02;15.75;;;16.50;99.90;;;;;;5016303;28;20137;-73
2023/08/23 04:19:17;;;;;;;23.00;14.52;;;16.50;99.90;;;;;;5016291;28;20042;-73
2023/08/23 04:21:45;;;;;;;22.88;15.57;;;16.60;99.90;;;;;;5015892;28;20512;-73
2023/08/23 04:24:10;;;;;;;22.02;14.27;;;16.50;99.90;;;;;;5015650;28;20054;-72
2023/08/23 04:26:38;;;;;;;25.45;15.48;;;16.50;99.90;;;;;;5015880;28;20048;-73
2023/08/23 04:29:04;;;;;;;22.52;15.00;;;16.60;99.90;;;;;;5016076;28;20403;-73
2023/08/23 04:31:30;;;;;;;22.33;14.55;;;16.60;99.90;;;;;;5016177;28;20099;-73
2023/08/23 04:33:56;;;;;;;26.98;15.13;;;16.50;99.90;;;;;;5017024;28;20509;-73
2023/08/23 04:36:21;;;;;;;23.10;14.57;;;16.50;99.90;;;;;;5015791;28;20050;-73
2023/08/23 04:38:47;;;;;;;24.55;15.38;;;16.60;99.90;;;;;;5015848;28;20041;-73
2023/08/23 04:41:13;;;;;;;22.67;15.07;;;16.50;99.90;;;;;;5015730;28;20049;-73
2023/08/23 04:43:38;;;;;;;24.13;15.00;;;16.50;99.90;;;;;;5016876;28;20042;-73
2023/08/23 04:46:06;;;;;;;21.58;14.25;;;16.40;99.90;;;;;;5015559;28;20077;-73
2023/08/23 04:48:32;;;;;;;20.80;13.73;;;16.40;99.90;;;;;;5015784;28;20095;-72
2023/08/23 04:50:58;;;;;;;21.42;15.48;;;16.50;99.90;;;;;;5015472;28;20049;-73
2023/08/23 04:53:25;;;;;;;23.63;13.95;;;16.40;99.90;;;;;;5017030;28;20069;-72
2023/08/23 04:55:54;;;;;;;19.98;14.02;;;16.30;99.90;;;;;;5015611;28;20050;-73
2023/08/23 04:58:20;;;;;;;22.25;14.80;;;16.40;99.90;;;;;;5015332;28;20041;-73
2023/08/23 05:00:46;;;;;;;25.27;15.05;;;16.30;99.90;;;;;;5015323;28;20045;-73
2023/08/23 05:03:11;;;;;;;21.50;14.80;;;16.40;99.90;;;;;;5015546;28;20041;-73
2023/08/23 05:05:37;;;;;;;22.65;16.08;;;16.30;99.90;;;;;;5015570;28;20054;-73
2023/08/23 05:08:04;;;;;;;23.30;15.75;;;16.30;99.90;;;;;;5015526;28;20041;-73
2023/08/23 05:10:30;;;;;;;22.42;14.48;;;16.20;99.90;;;;;;5015484;28;20065;-72
2023/08/23 05:12:56;;;;;;;23.40;15.20;;;16.30;99.90;;;;;;5015120;28;20042;-72
2023/08/23 05:15:22;;;;;;;20.35;13.90;;;16.30;99.90;;;;;;5016401;28;20042;-72
2023/08/23 05:17:48;;;;;;;24.15;16.02;;;16.20;99.90;;;;;;5016251;28;20413;-72
2023/08/23 05:20:14;;;;;;;23.98;15.07;;;16.30;99.90;;;;;;5014968;28;20044;-72
2023/08/23 05:22:40;;;;;;;19.25;14.05;;;16.30;99.90;;;;;;5014434;28;20050;-72
2023/08/23 05:25:09;;;;;;;20.63;14.52;;;16.20;99.90;;;;;;5015149;28;20054;-72
2023/08/23 05:27:34;;;;;;;23.10;14.70;;;16.30;99.90;;;;;;5015087;28;20038;-72
2023/08/23 05:30:03;;;;;;;21.13;14.60;;;16.20;99.90;;;;;;5015868;28;20560;-73
2023/08/23 05:32:32;;;;;;;20.90;14.27;;;16.20;99.90;;;;;;5014840;28;20054;-73
2023/08/23 05:34:57;;;;;;;21.23;14.98;;;16.20;99.90;;;;;;5014831;28;20076;-73
2023/08/23 05:37:23;;;;;;;19.67;14.38;;;16.20;99.90;;;;;;5014950;28;20046;-72
2023/08/23 05:39:49;;;;;;;20.55;15.15;;;16.20;99.90;;;;;;5015023;28;20394;-72
2023/08/23 05:42:17;;;;;;;19.80;13.68;;;16.10;99.90;;;;;;5014391;28;20482;-73
2023/08/23 05:44:43;;;;;;;20.98;14.27;;;16.20;99.90;;;;;;5014354;28;20057;-72
2023/08/23 05:47:08;;;;;;;20.20;14.07;;;16.20;99.90;;;;;;5014226;28;20049;-73
2023/08/23 05:49:34;;;;;;;20.35;14.48;;;16.20;99.90;;;;;;5015702;28;20112;-73
2023/08/23 05:52:00;;;;;;;21.83;14.93;;;16.30;99.90;;;;;;5014696;28;20038;-72
2023/08/23 05:54:25;;;;;;;21.13;15.15;;;16.30;99.90;;;;;;5015521;28;20398;-72
2023/08/23 05:56:51;;;;;;;21.52;15.27;;;16.30;99.90;;;;;;5014237;28;20046;-73
2023/08/23 05:59:17;;;;;;;25.70;16.02;;;16.40;99.90;;;;;;5014487;28;20097;-72
2023/08/23 06:01:42;;;;;;;27.17;17.25;;;16.40;99.90;;;;;;5014461;28;20370;-72
2023/08/23 06:04:08;;;;;;;24.67;16.20;;;16.50;99.90;;;;;;5014260;28;20037;-72
2023/08/23 06:06:33;;;;;;;24.95;16.80;;;16.50;99.90;;;;;;5014541;28;20049;-72
2023/08/23 06:09:02;;;;;;;24.38;16.27;;;16.50;99.90;;;;;;5014077;28;20169;-72
2023/08/23 06:11:28;;;;;;;23.63;16.73;;;16.50;99.90;;;;;;5015468;28;20050;-72
2023/08/23 06:13:55;;;;;;;26.48;16.08;;;16.50;99.90;;;;;;5015135;28;20044;-71
2023/08/23 06:16:21;;;;;;;23.33;16.35;;;16.50;99.90;;;;;;5013945;28;20045;-72
2023/08/23 06:18:46;;;;;;;24.83;16.23;;;16.50;99.90;;;;;;5014222;28;20071;-73
2023/08/23 06:21:12;;;;;;;21.88;16.17;;;16.60;99.90;;;;;;5013801;28;20052;-72
2023/08/23 06:23:43;;;;;;;24.70;16.77;;;16.70;99.90;;;;;;5013920;28;20103;-71
2023/08/23 06:26:10;;;;;;;26.17;18.70;;;16.90;99.90;;;;;;5013563;28;20054;-71
2023/08/23 06:28:38;;;;;;;26.50;18.48;;;17.00;99.90;;;;;;5024222;28;20486;-72
2023/08/23 06:31:04;;;;;;;26.17;17.88;;;17.10;99.90;;;;;;5013502;28;20522;-72
2023/08/23 06:33:29;;;;;;;28.75;17.83;;;17.30;99.90;;;;;;5014717;28;20053;-71
2023/08/23 06:35:55;;;;;;;32.55;19.50;;;17.40;99.90;;;;;;5013389;28;20441;-72
2023/08/23 06:38:20;;;;;;;27.60;19.08;;;17.50;99.90;;;;;;5014024;28;20053;-71
2023/08/23 06:40:47;;;;;;;24.60;18.38;;;17.70;99.90;;;;;;5022098;28;20459;-71
2023/08/23 06:43:19;;;;;;;24.63;18.15;;;17.80;99.90;;;;;;5034246;28;20550;-74
2023/08/23 06:45:45;;;;;;;26.35;19.17;;;17.90;99.90;;;;;;5387025;22;20131;-72
2023/08/23 06:48:12;;;;;;;23.10;17.75;;;18.00;99.90;;;;;;5069702;28;20059;-76
2023/08/23 06:50:37;;;;;;;26.20;17.95;;;18.20;99.90;;;;;;5072710;28;20040;-72
2023/08/23 06:53:05;;;;;;;28.02;18.58;;;18.30;99.90;;;;;;5070820;28;20040;-73
2023/08/23 06:55:30;;;;;;;23.38;18.15;;;18.40;99.90;;;;;;5071877;28;20052;-72
2023/08/23 06:57:56;;;;;;;26.13;18.15;;;18.50;99.90;;;;;;5072951;28;20127;-72
2023/08/23 07:00:21;;;;;;;22.42;16.80;;;18.50;99.90;;;;;;5072886;28;20445;-73
2023/08/23 07:02:48;;;;;;;25.92;17.88;;;18.60;99.90;;;;;;5072733;28;20051;-72
2023/08/23 07:05:13;;;;;;;23.80;17.55;;;18.70;99.90;;;;;;5072526;28;20079;-72
2023/08/23 07:07:39;;;;;;;21.70;17.05;;;18.80;99.90;;;;;;5052792;28;20080;-74
2023/08/23 07:10:05;;;;;;;24.27;17.10;;;18.90;99.90;;;;;;5052309;28;20051;-72
2023/08/23 07:12:31;;;;;;;25.67;17.33;;;18.80;99.90;;;;;;5052696;28;20044;-72
2023/08/23 07:14:57;;;;;;;21.98;16.60;;;18.90;99.90;;;;;;5052312;28;20400;-72
2023/08/23 07:17:23;;;;;;;22.70;17.10;;;18.90;99.90;;;;;;5052252;28;20044;-72
2023/08/23 07:19:50;;;;;;;25.55;16.58;;;19.00;99.90;;;;;;5052042;28;20079;-72
2023/08/23 07:22:15;;;;;;;26.23;17.60;;;19.10;99.90;;;;;;5052192;28;20052;-73
2023/08/23 07:24:41;;;;;;;22.23;17.08;;;19.20;99.90;;;;;;5052080;28;20045;-71
2023/08/23 07:27:07;;;;;;;25.23;17.90;;;19.30;99.90;;;;;;5052181;28;20041;-72
2023/08/23 07:29:35;;;;;;;23.60;16.67;;;19.20;99.90;;;;;;5051897;28;20179;-73
2023/08/23 07:32:00;;;;;;;25.70;17.83;;;19.40;99.90;;;;;;5052290;28;20052;-73
2023/08/23 07:34:26;;;;;;;24.05;17.63;;;19.30;99.90;;;;;;5052253;28;20391;-74
2023/08/23 07:36:52;;;;;;;20.20;17.05;;;19.30;99.90;;;;;;5056516;28;20054;-73
2023/08/23 07:39:18;;;;;;;21.98;17.10;;;19.30;99.90;;;;;;5070430;28;20037;-73
2023/08/23 07:41:43;;;;;;;27.40;17.67;;;19.40;99.90;;;;;;5071722;28;20123;-73
2023/08/23 07:44:12;;;;;;;24.40;17.67;;;19.60;99.90;;;;;;5070924;28;20044;-73
2023/08/23 07:46:37;;;;;;;22.88;15.98;;;19.80;99.90;;;;;;5071205;28;20136;-73
2023/08/23 07:49:03;;;;;;;20.58;15.90;;;19.90;99.90;;;;;;5071761;28;20135;-73
2023/08/23 07:51:29;;;;;;;20.10;15.80;;;20.20;99.90;;;;;;5071890;28;20502;-73
2023/08/23 07:53:54;;;;;;;22.15;15.23;;;20.10;99.90;;;;;;5073411;28;20044;-73
2023/08/23 07:56:20;;;;;;;21.80;15.23;;;20.30;99.90;;;;;;5072837;28;20080;-73
2023/08/23 07:58:46;;;;;;;18.95;14.48;;;20.40;99.90;;;;;;5071433;28;20490;-73
2023/08/23 08:01:11;;;;;;;22.00;14.32;;;20.50;99.90;;;;;;5071832;28;20491;-73
2023/08/23 08:03:39;;;;;;;22.77;15.02;;;20.70;99.90;;;;;;5071431;28;20049;-74
2023/08/23 08:06:05;;;;;;;20.75;15.48;;;20.80;99.90;;;;;;5071221;28;20119;-73
2023/08/23 08:08:30;;;;;;;19.60;14.35;;;20.70;99.90;;;;;;5071592;28;20120;-73
2023/08/23 08:10:56;;;;;;;22.63;14.88;;;20.80;99.90;;;;;;5071249;28;20697;-74
2023/08/23 08:13:22;;;;;;;19.90;14.77;;;20.90;99.90;;;;;;5071696;28;20036;-74
2023/08/23 08:15:48;;;;;;;17.67;13.20;;;20.90;99.90;;;;;;5072412;28;20040;-73
2023/08/23 08:18:13;;;;;;;20.77;14.88;;;21.00;99.90;;;;;;5072468;28;20487;-74
2023/08/23 08:20:39;;;;;;;20.95;14.57;;;21.10;99.90;;;;;;5071935;28;20502;-74
2023/08/23 08:23:04;;;;;;;21.65;14.38;;;21.10;99.90;;;;;;5071156;28;20592;-74
2023/08/23 08:25:33;;;;;;;19.63;14.68;;;21.20;99.90;;;;;;5071451;28;20116;-74
2023/08/23 08:27:58;;;;;;;22.83;14.50;;;21.10;99.90;;;;;;5071198;28;20509;-73
2023/08/23 08:30:24;;;;;;;19.77;13.82;;;21.10;99.90;;;;;;5062775;28;20033;-73
2023/08/23 08:32:50;;;;;;;18.77;12.93;;;21.20;99.90;;;;;;5072843;28;20055;-73
2023/08/23 08:35:15;;;;;;;17.98;12.85;;;21.30;99.90;;;;;;5071802;28;20056;-73
2023/08/23 08:37:41;;;;;;;19.65;13.30;;;21.50;99.90;;;;;;5073135;28;20128;-73
2023/08/23 08:40:07;;;;;;;16.88;12.27;;;21.50;99.90;;;;;;5071957;28;20044;-73
2023/08/23 08:42:33;;;;;;;22.00;13.70;;;21.70;99.90;;;;;;5071717;28;20137;-73
2023/08/23 08:44:59;;;;;;;20.65;12.50;;;21.70;99.90;;;;;;5071545;28;20076;-72
2023/08/23 08:47:25;;;;;;;30.23;14.13;;;21.80;99.90;;;;;;5071525;28;20054;-73
2023/08/23 08:49:51;;;;;;;23.10;13.90;;;21.60;99.90;;;;;;5071471;28;20086;-74
2023/08/23 08:52:19;;;;;;;19.80;13.02;;;21.50;99.90;;;;;;5072371;28;20040;-74
2023/08/23 08:54:47;;;;;;;17.38;11.82;;;21.70;99.90;;;;;;5070353;28;20136;-74
2023/08/23 08:57:14;;;;;;;16.05;11.40;;;21.80;99.90;;;;;;5075433;28;20103;-75
2023/08/23 08:59:44;;;;;;;16.25;10.90;;;21.90;99.90;;;;;;5075272;28;20058;-74
2023/08/23 09:02:13;;;;;;;18.55;11.20;;;21.80;99.90;;;;;;5076383;28;20045;-78
2023/08/23 09:04:39;;;;;;;16.15;9.93;;;22.00;99.90;;;;;;5075065;28;20110;-78
2023/08/23 09:07:05;;;;;;;14.25;11.13;;;22.10;99.90;;;;;;5074899;28;20048;-74
2023/08/23 09:09:32;;;;;;;13.75;10.05;;;22.20;99.90;;;;;;5074909;28;20094;-74
2023/08/23 09:11:58;;;;;;;11.80;8.88;;;22.30;99.90;;;;;;5076354;28;20045;-75
2023/08/23 09:14:25;;;;;;;13.70;9.05;;;22.40;99.90;;;;;;5075046;28;20376;-73
2023/08/23 09:16:50;;;;;;;12.65;8.23;;;22.50;99.90;;;;;;5074670;28;20044;-73
2023/08/23 09:19:16;;;;;;;13.32;8.27;;;22.50;99.90;;;;;;5074783;28;20093;-73
2023/08/23 09:21:49;;;;;;;11.48;7.75;;;22.60;99.90;;;;;;5074911;28;20078;-73
2023/08/23 09:24:15;;;;;;;;;;;22.70;99.90;;;;;;5075140;28;20395;-73
2023/08/23 09:26:40;;;;;;;12.85;8.35;;;22.70;99.90;;;;;;5074754;28;19921;-73
2023/08/23 09:29:07;;;;;;;11.27;8.20;;;22.80;99.90;;;;;;5074785;28;20399;-73
2023/08/23 09:31:32;;;;;;;12.60;8.35;;;22.80;99.90;;;;;;5074462;28;20169;-73
2023/08/23 09:34:11;;;;;;;15.05;11.15;;;22.90;99.90;;;;;;5074563;28;20131;-73
2023/08/23 09:36:46;;;;;;;23.25;16.58;;;22.90;99.90;;;;;;5074329;28;20040;-73
2023/08/23 09:39:12;;;;;;;20.50;15.57;;;22.90;99.90;;;;;;5075652;28;20036;-77
2023/08/23 09:41:39;;;;;;;20.20;16.27;;;23.00;99.90;;;;;;5075360;28;20490;-73
2023/08/23 09:44:06;;;;;;;20.70;15.13;;;23.10;99.90;;;;;;5072846;28;20040;-73
2023/08/23 09:46:35;;;;;;;14.32;9.32;;;23.20;99.90;;;;;;5074936;28;20060;-73
2023/08/23 09:49:04;;;;;;;11.38;9.88;;;23.20;99.90;;;;;;5073463;28;20052;-73
2023/08/23 09:51:35;;;;;;;13.18;9.60;;;23.00;99.90;;;;;;5073535;28;20045;-73
2023/08/23 09:54:33;;;;;;;11.93;8.35;;;22.90;99.90;;;;;;5070273;28;20044;-73
2023/08/23 09:56:59;;;;;;;10.43;7.63;;;22.80;99.90;;;;;;5055371;28;20084;-73
2023/08/23 09:59:25;;;;;;;19.15;9.55;;;22.50;99.90;;;;;;5062276;28;20089;-73
2023/08/23 10:01:51;;;;;;;9.70;7.90;;;22.40;99.90;;;;;;5074470;28;20041;-73
2023/08/23 10:04:18;;;;;;;13.70;7.50;;;22.30;99.90;;;;;;5074698;28;20045;-73
2023/08/23 10:06:45;;;;;;;10.80;5.25;;;22.20;99.90;;;;;;5074231;28;20037;-73
2023/08/23 10:09:13;;;;;;;10.07;4.55;;;22.10;99.90;;;;;;5073822;28;20110;-73
2023/08/23 10:11:39;;;;;;;8.20;3.75;;;21.90;99.90;;;;;;5073309;28;20048;-73
2023/08/23 10:14:07;;;;;;;8.88;4.53;;;21.90;99.90;;;;;;5073000;28;20517;-73
2023/08/23 10:16:35;;;;;;;11.07;4.07;;;22.00;99.90;;;;;;5072831;28;20048;-73
2023/08/23 10:19:00;;;;;;;8.90;3.65;;;21.90;99.90;;;;;;5075045;28;20045;-73
2023/08/23 10:21:27;;;;;;;9.13;3.33;;;21.80;99.90;;;;;;5074332;28;20396;-73
2023/08/23 10:23:53;;;;;;;7.30;3.40;;;21.80;99.90;;;;;;5073719;28;20044;-73
2023/08/23 10:26:21;;;;;;;8.20;3.33;;;21.80;99.90;;;;;;5072831;28;20048;-73
2023/08/23 10:28:52;;;;;;;6.43;3.17;;;21.70;99.90;;;;;;5074849;28;20119;-73
2023/08/23 10:31:28;;;;;;;7.32;3.40;;;21.70;99.90;;;;;;5072955;28;20040;-73
2023/08/23 10:34:31;;;;;;;9.88;3.45;;;21.60;99.90;;;;;;5073296;28;20041;-72
2023/08/23 10:36:56;;;;;;;11.55;4.38;;;21.60;99.90;;;;;;5071257;28;20094;-78
2023/08/23 10:39:23;;;;;;;11.50;5.00;;;21.60;99.90;;;;;;5073109;28;20048;-73
2023/08/23 10:41:53;;;;;;;9.80;4.63;;;21.50;99.90;;;;;;5073313;28;20507;-73
2023/08/23 10:44:28;;;;;;;8.57;3.92;;;21.50;99.90;;;;;;5073924;28;20048;-74
2023/08/23 10:46:57;;;;;;;11.48;4.47;;;21.70;99.90;;;;;;5073018;28;20131;-72
2023/08/23 10:49:25;;;;;;;10.68;3.60;;;21.70;99.90;;;;;;5073306;28;20053;-73
2023/08/23 10:51:52;;;;;;;11.82;4.28;;;21.80;99.90;;;;;;5073206;28;20407;-72
2023/08/23 10:54:18;;;;;;;8.88;3.72;;;22.00;99.90;;;;;;5072819;28;20056;-73
2023/08/23 10:56:43;;;;;;;8.85;3.92;;;22.30;99.90;;;;;;5073895;28;20044;-73
2023/08/23 10:59:09;;;;;;;10.45;3.30;;;22.40;99.90;;;;;;5072831;28;20487;-73
2023/08/23 11:01:37;;;;;;;9.05;2.88;;;22.50;99.90;;;;;;5073894;28;20041;-73
2023/08/23 11:04:05;;;;;;;8.82;3.22;;;22.50;99.90;;;;;;5071608;28;20036;-72
2023/08/23 11:06:31;;;;;;;10.43;2.65;;;22.40;99.90;;;;;;5073605;28;20136;-72
2023/08/23 11:08:58;;;;;;;5.57;2.58;;;22.40;99.90;;;;;;5072452;28;20047;-72
2023/08/23 11:11:30;;;;;;;9.00;3.30;;;22.40;99.90;;;;;;5072633;28;20103;-72
2023/08/23 11:13:56;;;;;;;5.85;2.00;;;22.60;99.90;;;;;;5072398;28;20093;-73
2023/08/23 11:16:28;;;;;;;5.60;2.20;;;22.60;99.90;;;;;;5072258;28;20070;-72
2023/08/23 11:19:03;;;;;;;5.22;2.40;;;22.60;99.90;;;;;;5071801;28;20052;-73
2023/08/23 11:21:31;;;;;;;5.75;2.72;;;22.60;99.90;;;;;;5072493;28;20044;-73
2023/08/23 11:23:57;;;;;;;9.68;3.13;;;22.60;99.90;;;;;;5072337;28;20491;-72
2023/08/23 11:26:23;;;;;;;7.32;2.85;;;22.40;99.90;;;;;;5072437;28;20045;-72
2023/08/23 11:28:51;;;;;;;7.80;3.22;;;22.30;99.90;;;;;;5072445;28;20033;-72
2023/08/23 11:31:17;;;;;;;6.38;2.70;;;22.20;99.90;;;;;;5072669;28;20106;-72
2023/08/23 11:33:42;;;;;;;8.50;3.13;;;22.20;99.90;;;;;;5073429;28;20439;-72
2023/08/23 11:36:09;;;;;;;8.13;2.80;;;22.00;99.90;;;;;;5072282;28;20036;-73
2023/08/23 11:38:35;;;;;;;7.78;2.65;;;21.90;99.90;;;;;;5071106;28;20043;-74
2023/08/23 11:41:01;;;;;;;5.38;2.17;;;21.90;99.90;;;;;;5072067;28;20049;-74
2023/08/23 11:43:28;;;;;;;5.70;1.90;;;21.80;99.90;;;;;;5071470;28;20045;-74
2023/08/23 11:45:55;;;;;;;5.70;3.13;;;21.80;99.90;;;;;;5071497;28;20053;-76
2023/08/23 11:48:25;;;;;;;7.00;2.40;;;21.80;99.90;;;;;;5071496;28;20057;-73
2023/08/23 11:50:51;;;;;;;7.38;2.42;;;21.70;99.90;;;;;;5071749;28;20143;-73
2023/08/23 11:53:17;;;;;;;8.48;2.38;;;21.70;99.90;;;;;;5071461;28;20048;-74
2023/08/23 11:55:43;;;;;;;8.50;3.97;;;21.70;99.90;;;;;;5071308;28;20044;-73
2023/08/23 11:58:13;;;;;;;7.72;2.20;;;21.70;99.90;;;;;;5071942;28;20055;-74
2023/08/23 12:00:39;;;;;;;6.18;2.58;;;21.70;99.90;;;;;;5072293;28;20040;-73
2023/08/23 12:03:04;;;;;;;8.73;2.00;;;21.70;99.90;;;;;;5072222;28;20556;-73
2023/08/23 12:05:30;;;;;;;6.38;1.80;;;21.60;99.90;;;;;;5072775;28;20041;-73
2023/08/23 12:07:56;;;;;;;5.15;1.85;;;21.60;99.90;;;;;;5071625;28;20424;-73
2023/08/23 12:10:22;;;;;;;5.45;1.58;;;21.70;99.90;;;;;;5071936;28;20048;-74
2023/08/23 12:12:50;;;;;;;6.45;2.15;;;21.80;99.90;;;;;;5072147;28;20043;-73
2023/08/23 12:15:19;;;;;;;5.15;2.08;;;22.00;99.90;;;;;;5069889;28;20040;-73
2023/08/23 12:17:44;;;;;;;5.63;1.90;;;22.20;99.90;;;;;;5062807;28;20150;-73
2023/08/23 12:20:11;;;;;;;6.72;1.73;;;22.30;99.90;;;;;;5063201;28;20127;-73
2023/08/23 12:22:43;;;;;;;7.32;2.17;;;22.30;99.90;;;;;;5054407;28;20049;-74
2023/08/23 12:25:09;;;;;;;6.65;2.10;;;22.20;99.90;;;;;;5052088;28;20510;-72
2023/08/23 12:27:37;;;;;;;4.93;1.70;;;22.10;99.90;;;;;;5055900;28;20044;-73
2023/08/23 12:30:03;;;;;;;6.25;1.73;;;22.10;99.90;;;;;;5071661;28;20045;-73